Time;durP1;ratioP1;P1;durP2;ratioP2;P2;SDS_P1;SDS_P2;PMS_P1;PMS_P2;Temp;Humidity;BMP_temperature;BMP_pressure;BME280_temperature;BME280_humidity;BME280_pressure;Samples;Min_cycle;Max_cycle;Signal;HPM_P1;HPM_P2
2022/12/09 00:01:24;;;;;;;;;;;2.60;99.90;;;;;;5082387;28;19966;-64
2022/12/09 00:03:49;;;;;;;;;;;2.60;99.90;;;;;;5083769;28;19978;-64
2022/12/09 00:06:16;;;;;;;;;;;2.70;99.90;;;;;;5082743;28;19924;-64
2022/12/09 00:08:42;;;;;;;;;;;2.60;99.90;;;;;;5080457;28;19927;-64
2022/12/09 00:11:08;;;;;;;;;;;2.70;99.90;;;;;;5077404;28;19943;-64
2022/12/09 00:13:33;;;;;;;;;;;2.50;99.90;;;;;;5110175;27;19924;-64
2022/12/09 00:15:59;;;;;;;;;;;2.70;99.90;;;;;;5085139;28;19971;-64
2022/12/09 00:18:24;;;;;;;;;;;2.60;99.90;;;;;;5064954;28;19927;-64
2022/12/09 00:20:50;;;;;;;;;;;2.60;99.90;;;;;;5078776;28;19925;-64
2022/12/09 00:23:15;;;;;;;;;;;2.60;99.90;;;;;;5079021;28;19932;-64
2022/12/09 00:25:41;;;;;;;;;;;2.50;99.90;;;;;;5077034;28;20994;-64
2022/12/09 00:28:06;;;;;;;;;;;2.60;99.90;;;;;;5083175;28;19967;-64
2022/12/09 00:30:32;;;;;;;;;;;2.60;99.90;;;;;;5075016;28;19920;-64
2022/12/09 00:32:57;;;;;;;;;;;2.60;99.90;;;;;;5075607;28;19973;-64
2022/12/09 00:35:23;;;;;;;;;;;2.60;99.90;;;;;;5082433;28;19920;-64
2022/12/09 00:37:48;;;;;;;;;;;2.50;99.90;;;;;;5082334;28;19924;-65
2022/12/09 00:40:14;;;;;;;;;;;2.50;99.90;;;;;;5083577;28;20282;-64
2022/12/09 00:42:39;;;;;;;;;;;2.50;99.90;;;;;;5073433;28;20030;-64
2022/12/09 00:45:06;;;;;;;;;;;2.40;99.90;;;;;;5080419;28;19928;-64
2022/12/09 00:47:32;;;;;;;;;;;2.50;99.90;;;;;;5074461;28;20105;-64
2022/12/09 00:49:57;;;;;;;;;;;2.40;99.90;;;;;;5078665;28;20276;-64
2022/12/09 00:52:23;;;;;;;;;;;2.50;99.90;;;;;;5105048;27;19924;-64
2022/12/09 00:54:48;;;;;;;;;;;2.40;99.90;;;;;;5086283;28;19925;-64
2022/12/09 00:57:14;;;;;;;;;;;2.40;99.90;;;;;;5084361;28;20000;-64
2022/12/09 00:59:39;;;;;;;;;;;2.40;99.90;;;;;;5086625;28;19924;-64
2022/12/09 01:02:05;;;;;;;;;;;2.40;99.90;;;;;;5082681;28;20386;-64
2022/12/09 01:04:30;;;;;;;;;;;2.40;99.90;;;;;;5082598;28;19924;-64
2022/12/09 01:06:55;;;;;;;;;;;2.40;99.90;;;;;;5080997;28;19966;-64
2022/12/09 01:09:21;;;;;;;;;;;2.40;99.90;;;;;;5083551;28;20015;-64
2022/12/09 01:11:47;;;;;;;;;;;2.40;99.90;;;;;;5085480;28;20332;-64
2022/12/09 01:14:12;;;;;;;;;;;2.30;99.90;;;;;;5084856;28;19930;-64
2022/12/09 01:16:38;;;;;;;;;;;2.30;99.90;;;;;;5079447;28;19928;-65
2022/12/09 01:19:05;;;;;;;;;;;2.30;99.90;;;;;;5084627;28;19924;-64
2022/12/09 01:21:30;;;;;;;;;;;2.30;99.90;;;;;;5114611;27;19920;-64
2022/12/09 01:23:56;;;;;;;;;;;2.30;99.90;;;;;;5119078;27;20339;-64
2022/12/09 01:26:21;;;;;;;;;;;2.30;99.90;;;;;;5083547;28;19924;-64
2022/12/09 01:28:51;;;;;;;;;;;2.30;99.90;;;;;;5084072;28;19920;-64
2022/12/09 01:31:18;;;;;;;;;;;2.30;99.90;;;;;;5083180;28;20468;-64
2022/12/09 01:33:43;;;;;;;;;;;2.30;99.90;;;;;;5116247;27;19925;-64
2022/12/09 01:36:13;;;;;;;;;;;2.30;99.90;;;;;;5088983;28;19935;-63
2022/12/09 01:38:39;;;;;;;;;;;2.30;99.90;;;;;;5118919;27;20259;-63
2022/12/09 01:41:04;;;;;;;;;;;2.20;99.90;;;;;;5079726;28;19934;-64
2022/12/09 01:43:30;;;;;;;;;;;2.30;99.90;;;;;;5083362;28;19924;-63
2022/12/09 01:45:55;;;;;;;;;;;2.30;99.90;;;;;;5116346;27;19930;-64
2022/12/09 01:48:24;;;;;;;;;;;2.20;99.90;;;;;;5118967;27;19965;-64
2022/12/09 01:50:51;;;;;;;;;;;2.20;99.90;;;;;;5075643;28;19924;-64
2022/12/09 01:53:18;;;;;;;;;;;2.20;99.90;;;;;;5078916;28;19931;-64
2022/12/09 01:55:44;;;;;;;;;;;2.20;99.90;;;;;;5083787;28;19924;-64
2022/12/09 01:58:10;;;;;;;;;;;2.10;99.90;;;;;;5087344;28;20299;-64
2022/12/09 02:00:35;;;;;;;;;;;2.20;99.90;;;;;;5085686;28;19928;-64
2022/12/09 02:03:01;;;;;;;;;;;2.30;99.90;;;;;;5116163;27;19920;-64
2022/12/09 02:05:27;;;;;;;;;;;2.30;99.90;;;;;;5078554;28;19924;-64
2022/12/09 02:07:53;;;;;;;;;;;2.20;99.90;;;;;;5081055;28;20291;-64
2022/12/09 02:10:19;;;;;;;;;;;2.20;99.90;;;;;;5085793;28;19924;-64
2022/12/09 02:12:44;;;;;;;;;;;2.20;99.90;;;;;;5080586;28;20359;-64
2022/12/09 02:15:19;;;;;;;;;;;2.20;99.90;;;;;;5081741;28;19920;-64
2022/12/09 02:17:49;;;;;;;;;;;2.10;99.90;;;;;;5087482;28;19950;-64
2022/12/09 02:20:24;;;;;;;;;;;2.00;99.90;;;;;;5118845;27;19920;-64
2022/12/09 02:23:06;;;;;;;;;;;2.00;99.90;;;;;;5081770;28;19931;-64
2022/12/09 02:25:42;;;;;;;;;;;1.90;99.90;;;;;;5079707;28;20294;-64
2022/12/09 02:28:19;;;;;;;;;;;1.90;99.90;;;;;;5079714;28;19927;-64
2022/12/09 02:30:45;;;;;;;;;;;1.90;99.90;;;;;;5086145;28;19920;-64
2022/12/09 02:33:29;;;;;;;;;;;1.90;99.90;;;;;;5063245;28;19928;-64
2022/12/09 02:36:15;;;;;;;;;;;1.80;99.90;;;;;;5079511;28;19920;-64
2022/12/09 02:38:41;;;;;;;;;;;1.80;99.90;;;;;;5087703;28;20158;-64
2022/12/09 02:41:12;;;;;;;;;;;1.80;99.90;;;;;;5084059;28;19927;-64
2022/12/09 02:43:40;;;;;;;;;;;1.80;99.90;;;;;;5079139;28;19928;-64
2022/12/09 02:46:08;;;;;;;;;;;1.90;99.90;;;;;;5080942;28;19924;-65
2022/12/09 02:48:38;;;;;;;;;;;1.90;99.90;;;;;;5084455;28;20374;-64
2022/12/09 02:51:06;;;;;;;;;;;1.90;99.90;;;;;;5114899;27;19931;-64
2022/12/09 02:53:32;;;;;;;;;;;1.90;99.90;;;;;;5089682;27;20106;-64
2022/12/09 02:55:58;;;;;;;;;;;2.00;99.90;;;;;;5115245;27;19920;-64
2022/12/09 02:58:23;;;;;;;;;;;2.00;99.90;;;;;;5116249;27;19930;-64
2022/12/09 03:00:50;;;;;;;;;;;2.00;99.90;;;;;;5083062;28;20025;-65
2022/12/09 03:03:17;;;;;;;;;;;1.90;99.90;;;;;;5114254;27;19924;-64
2022/12/09 03:05:46;;;;;;;;;;;1.90;99.90;;;;;;5081767;28;19985;-64
2022/12/09 03:08:21;;;;;;;;;;;1.90;99.90;;;;;;5113283;27;19930;-64
2022/12/09 03:11:01;;;;;;;;;;;1.90;99.90;;;;;;5085792;28;19919;-64
2022/12/09 03:13:26;;;;;;;;;;;1.90;99.90;;;;;;5070904;28;19998;-64
2022/12/09 03:15:57;;;;;;;;;;;1.90;99.90;;;;;;5082034;28;19959;-64
2022/12/09 03:18:24;;;;;;;;;;;1.80;99.90;;;;;;5077750;28;19967;-64
2022/12/09 03:20:50;;;;;;;;;;;1.80;99.90;;;;;;5083832;28;19925;-64
2022/12/09 03:23:18;;;;;;;;;;;1.80;99.90;;;;;;5083201;28;19926;-64
2022/12/09 03:25:45;;;;;;;;;;;1.70;99.90;;;;;;5079781;28;20010;-64
2022/12/09 03:28:23;;;;;;;;;;;1.70;99.90;;;;;;5114305;27;19927;-64
2022/12/09 03:30:48;;;;;;;;;;;1.70;99.90;;;;;;5082806;28;19935;-64
2022/12/09 03:33:15;;;;;;;;;;;1.60;99.90;;;;;;5111853;27;20057;-64
2022/12/09 03:35:41;;;;;;;;;;;1.60;99.90;;;;;;5086687;28;19931;-64
2022/12/09 03:38:10;;;;;;;;;;;1.50;99.90;;;;;;5084838;28;20286;-64
2022/12/09 03:40:36;;;;;;;;;;;1.50;99.90;;;;;;5085484;28;19928;-64
2022/12/09 03:43:13;;;;;;;;;;;1.50;99.90;;;;;;5075037;28;19924;-64
2022/12/09 03:45:38;;;;;;;;;;;1.40;99.90;;;;;;5116008;27;19920;-64
2022/12/09 03:48:04;;;;;;;;;;;1.40;99.90;;;;;;5082149;28;20393;-64
2022/12/09 03:50:33;;;;;;;;;;;1.40;99.90;;;;;;5084101;28;19955;-64
2022/12/09 03:53:14;;;;;;;;;;;1.30;99.90;;;;;;5077402;28;19928;-64
2022/12/09 03:55:40;;;;;;;;;;;1.30;99.90;;;;;;5094665;27;19928;-64
2022/12/09 03:58:06;;;;;;;;;;;1.30;99.90;;;;;;5077590;28;19935;-64
2022/12/09 04:00:35;;;;;;;;;;;1.20;99.90;;;;;;5080364;28;20020;-64
2022/12/09 04:03:00;;;;;;;;;;;1.30;99.90;;;;;;5079697;28;19972;-64
2022/12/09 04:05:26;;;;;;;;;;;1.20;99.90;;;;;;5085233;28;20082;-64
2022/12/09 04:07:51;;;;;;;;;;;1.20;99.90;;;;;;5110571;27;20594;-64
2022/12/09 04:10:17;;;;;;;;;;;1.20;99.90;;;;;;5081509;28;19969;-64
2022/12/09 04:12:42;;;;;;;;;;;1.30;99.90;;;;;;5078666;28;19924;-64
2022/12/09 04:15:08;;;;;;;;;;;1.30;99.90;;;;;;5098041;27;19926;-64
2022/12/09 04:17:34;;;;;;;;;;;1.30;99.90;;;;;;5081547;28;21060;-64
2022/12/09 04:20:00;;;;;;;;;;;1.20;99.90;;;;;;5072502;28;19924;-64
2022/12/09 04:22:25;;;;;;;;;;;1.20;99.90;;;;;;5083053;28;19928;-64
2022/12/09 04:24:50;;;;;;;;;;;1.30;99.90;;;;;;5082451;28;20328;-64
2022/12/09 04:27:16;;;;;;;;;;;1.30;99.90;;;;;;5083518;28;20426;-64
2022/12/09 04:29:41;;;;;;;;;;;1.20;99.90;;;;;;5073515;28;21084;-64
2022/12/09 04:32:07;;;;;;;;;;;1.20;99.90;;;;;;5081186;28;19920;-64
2022/12/09 04:34:33;;;;;;;;;;;1.10;99.90;;;;;;5067886;28;19942;-64
2022/12/09 04:36:58;;;;;;;;;;;1.00;99.90;;;;;;5115248;27;19920;-64
2022/12/09 04:39:23;;;;;;;;;;;1.00;99.90;;;;;;5084237;28;19999;-64
2022/12/09 04:41:49;;;;;;;;;;;1.00;99.90;;;;;;5071302;28;21564;-64
2022/12/09 04:44:14;;;;;;;;;;;0.80;99.90;;;;;;5080416;28;19924;-65
2022/12/09 04:46:40;;;;;;;;;;;0.90;99.90;;;;;;5081406;28;19930;-64
2022/12/09 04:49:05;;;;;;;;;;;0.70;99.90;;;;;;5076990;28;19924;-64
2022/12/09 04:51:31;;;;;;;;;;;0.70;99.90;;;;;;5081951;28;19920;-64
2022/12/09 04:53:56;;;;;;;;;;;0.60;99.90;;;;;;5079741;28;20058;-64
2022/12/09 04:56:22;;;;;;;;;;;0.60;99.90;;;;;;5079858;28;20347;-63
2022/12/09 04:58:48;;;;;;;;;;;0.60;99.90;;;;;;5077657;28;19920;-64
2022/12/09 05:01:18;;;;;;;;;;;0.50;99.90;;;;;;5077659;28;20297;-63
2022/12/09 05:03:51;;;;;;;;;;;0.40;99.90;;;;;;5077184;28;19920;-64
2022/12/09 05:06:18;;;;;;;;;;;0.40;99.90;;;;;;5111989;27;20398;-63
2022/12/09 05:08:43;;;;;;;;;;;0.30;99.90;;;;;;5081755;28;20389;-63
2022/12/09 05:11:09;;;;;;;;;;;0.20;99.90;;;;;;5079648;28;20056;-64
2022/12/09 05:13:35;;;;;;;;;;;0.20;99.90;;;;;;5112162;27;19932;-64
2022/12/09 05:16:00;;;;;;;;;;;0.20;99.90;;;;;;5078710;28;20381;-64
2022/12/09 05:18:26;;;;;;;;;;;0.20;99.90;;;;;;5081575;28;20366;-64
2022/12/09 05:20:51;;;;;;;;;;;0.20;99.90;;;;;;5083218;28;19923;-64
2022/12/09 05:23:17;;;;;;;;;;;0.10;99.90;;;;;;5079489;28;19927;-64
2022/12/09 05:25:42;;;;;;;;;;;0.10;99.90;;;;;;5083787;28;20425;-64
2022/12/09 05:28:08;;;;;;;;;;;-0.10;99.90;;;;;;5076982;28;19924;-64
2022/12/09 05:30:35;;;;;;;;;;;-0.20;99.90;;;;;;5126695;27;19959;-64
2022/12/09 05:33:00;;;;;;;;;;;-0.20;99.90;;;;;;5125834;27;19962;-63
2022/12/09 05:35:26;;;;;;;;;;;-0.20;99.90;;;;;;5094503;28;19990;-63
2022/12/09 05:37:51;;;;;;;;;;;-0.20;99.90;;;;;;5094308;28;19920;-63
2022/12/09 05:40:17;;;;;;;;;;;-0.20;99.90;;;;;;5098123;28;20405;-64
2022/12/09 05:42:42;;;;;;;;;;;-0.20;99.90;;;;;;5124104;27;19956;-63
2022/12/09 05:45:08;;;;;;;;;;;-0.20;99.90;;;;;;5082924;28;19924;-63
2022/12/09 05:47:33;;;;;;;;;;;-0.30;99.90;;;;;;5098838;28;19927;-64
2022/12/09 05:49:59;;;;;;;;;;;-0.30;99.90;;;;;;5092534;28;19931;-64
2022/12/09 05:52:24;;;;;;;;;;;-0.30;99.90;;;;;;5092134;28;19931;-64
2022/12/09 05:54:49;;;;;;;;;;;-0.40;99.90;;;;;;5095774;28;19923;-63
2022/12/09 05:57:15;;;;;;;;;;;-0.50;99.90;;;;;;5080010;28;19932;-64
2022/12/09 05:59:40;;;;;;;;;;;-0.50;99.90;;;;;;5094668;28;19978;-63
2022/12/09 06:02:06;;;;;;;;;;;-0.60;99.90;;;;;;5088915;28;20551;-63
2022/12/09 06:04:31;;;;;;;;;;;-0.60;99.90;;;;;;5089134;28;19920;-63
2022/12/09 06:06:57;;;;;;;;;;;-0.70;99.90;;;;;;5097528;28;19920;-63
2022/12/09 06:09:22;;;;;;;;;;;-0.60;99.90;;;;;;5093870;28;19921;-63
2022/12/09 06:11:48;;;;;;;;;;;-0.50;99.90;;;;;;5121859;27;19923;-63
2022/12/09 06:14:13;;;;;;;;;;;-0.60;99.90;;;;;;5084857;28;19990;-64
2022/12/09 06:16:39;;;;;;;;;;;-0.60;99.90;;;;;;5092703;28;20396;-64
2022/12/09 06:19:04;;;;;;;;;;;-0.60;99.90;;;;;;5095262;28;19928;-63
2022/12/09 06:21:30;;;;;;;;;;;-0.70;99.90;;;;;;5090305;28;19930;-63
2022/12/09 06:23:55;;;;;;;;;;;-0.70;99.90;;;;;;5097824;28;20382;-64
2022/12/09 06:26:23;;;;;;;;;;;-0.60;99.90;;;;;;5072715;28;19931;-64
2022/12/09 06:28:48;;;;;;;;;;;-0.80;99.90;;;;;;5130261;27;19920;-64
2022/12/09 06:31:14;;;;;;;;;;;-0.70;99.90;;;;;;5089641;28;19927;-63
2022/12/09 06:33:40;;;;;;;;;;;-0.90;99.90;;;;;;5090896;28;20001;-64
2022/12/09 06:36:06;;;;;;;;;;;-0.80;99.90;;;;;;5088353;28;19924;-63
2022/12/09 06:38:31;;;;;;;;;;;-0.70;99.90;;;;;;5094991;28;20083;-64
2022/12/09 06:40:57;;;;;;;;;;;-0.80;99.90;;;;;;5123295;27;20380;-64
2022/12/09 06:43:22;;;;;;;;;;;-0.80;99.90;;;;;;5085801;28;19920;-64
2022/12/09 06:45:48;;;;;;;;;;;-0.80;99.90;;;;;;5076119;28;20413;-64
2022/12/09 06:48:13;;;;;;;;;;;-0.70;99.90;;;;;;5094615;28;19958;-64
2022/12/09 06:50:40;;;;;;;;;;;-0.70;99.90;;;;;;5085054;28;19928;-64
2022/12/09 06:53:05;;;;;;;;;;;-0.60;99.90;;;;;;5089143;28;19928;-64
2022/12/09 06:55:31;;;;;;;;;;;-0.60;99.90;;;;;;5087110;28;19928;-64
2022/12/09 06:57:56;;;;;;;;;;;-0.60;99.90;;;;;;5094258;28;19923;-64
2022/12/09 07:00:22;;;;;;;;;;;-0.70;99.90;;;;;;5088997;28;19924;-64
2022/12/09 07:02:47;;;;;;;;;;;-0.60;99.90;;;;;;5096351;28;19927;-64
2022/12/09 07:05:13;;;;;;;;;;;-0.70;99.90;;;;;;5087486;28;20301;-64
2022/12/09 07:07:38;;;;;;;;;;;-0.70;99.90;;;;;;5079943;28;19935;-64
2022/12/09 07:10:05;;;;;;;;;;;-0.60;99.90;;;;;;5088964;28;19963;-64
2022/12/09 07:12:30;;;;;;;;;;;-0.70;99.90;;;;;;5082017;28;20382;-64
2022/12/09 07:14:56;;;;;;;;;;;-0.70;99.90;;;;;;5094922;28;19924;-64
2022/12/09 07:17:21;;;;;;;;;;;-0.70;99.90;;;;;;5071083;28;20282;-64
2022/12/09 07:19:47;;;;;;;;;;;-0.70;99.90;;;;;;5091407;28;19920;-64
2022/12/09 07:22:13;;;;;;;;;;;-0.70;99.90;;;;;;5092913;28;19927;-64
2022/12/09 07:24:38;;;;;;;;;;;-0.60;99.90;;;;;;5094125;28;20416;-63
2022/12/09 07:27:05;;;;;;;;;;;-0.50;99.90;;;;;;5115828;27;19928;-64
2022/12/09 07:29:31;;;;;;;;;;;-0.60;99.90;;;;;;5088667;28;20467;-64
2022/12/09 07:31:57;;;;;;;;;;;-0.40;99.90;;;;;;5084431;28;19970;-64
2022/12/09 07:34:22;;;;;;;;;;;-0.40;99.90;;;;;;5093354;28;20390;-63
2022/12/09 07:36:48;;;;;;;;;;;-0.20;99.90;;;;;;5099592;28;20425;-64
2022/12/09 07:39:15;;;;;;;;;;;-0.20;99.90;;;;;;5091850;28;19927;-63
2022/12/09 07:41:40;;;;;;;;;;;0.00;99.90;;;;;;5090487;28;19920;-63
2022/12/09 07:44:06;;;;;;;;;;;0.00;99.90;;;;;;5087173;28;19932;-63
2022/12/09 07:46:31;;;;;;;;;;;0.00;99.90;;;;;;5092769;28;19971;-63
2022/12/09 07:48:57;;;;;;;;;;;0.10;99.90;;;;;;5091499;28;19928;-64
2022/12/09 07:51:23;;;;;;;;;;;0.10;99.90;;;;;;5092970;28;19931;-63
2022/12/09 07:53:49;;;;;;;;;;;0.20;99.90;;;;;;5094690;28;19928;-63
2022/12/09 07:56:15;;;;;;;;;;;0.30;99.90;;;;;;5112471;27;20278;-63
2022/12/09 07:58:42;;;;;;;;;;;0.30;99.90;;;;;;5087987;28;19931;-63
2022/12/09 08:01:09;;;;;;;;;;;0.50;99.90;;;;;;5085148;28;19927;-63
2022/12/09 08:03:34;;;;;;;;;;;0.50;99.90;;;;;;5083951;28;20310;-63
2022/12/09 08:06:00;;;;;;;;;;;0.60;99.90;;;;;;5086349;28;19921;-63
2022/12/09 08:08:25;;;;;;;;;;;0.60;99.90;;;;;;5080800;28;19935;-63
2022/12/09 08:10:51;;;;;;;;;;;0.50;99.90;;;;;;5118739;27;20294;-63
2022/12/09 08:13:16;;;;;;;;;;;0.60;99.90;;;;;;5074806;28;19931;-63
2022/12/09 08:15:42;;;;;;;;;;;0.60;99.90;;;;;;5084889;28;20293;-63
2022/12/09 08:18:07;;;;;;;;;;;0.70;99.90;;;;;;5098429;28;19928;-63
2022/12/09 08:20:33;;;;;;;;;;;0.80;99.90;;;;;;5087980;28;19989;-63
2022/12/09 08:22:58;;;;;;;;;;;0.70;99.90;;;;;;5089111;28;19966;-64
2022/12/09 08:25:24;;;;;;;;;;;0.70;99.90;;;;;;5096708;28;20100;-63
2022/12/09 08:27:49;;;;;;;;;;;0.60;99.90;;;;;;5089699;28;20271;-63
2022/12/09 08:30:15;;;;;;;;;;;0.70;99.90;;;;;;5082708;28;19920;-64
2022/12/09 08:32:41;;;;;;;;;;;0.70;99.90;;;;;;5085131;28;19924;-63
2022/12/09 08:35:13;;;;;;;;;;;0.70;99.90;;;;;;5089872;28;19919;-64
2022/12/09 08:37:42;;;;;;;;;;;0.80;99.90;;;;;;5080061;28;20402;-63
2022/12/09 08:40:08;;;;;;;;;;;0.70;99.90;;;;;;5111868;28;20351;-63
2022/12/09 08:42:33;;;;;;;;;;;0.50;99.90;;;;;;5081033;28;19959;-63
2022/12/09 08:44:59;;;;;;;;;;;0.60;99.90;;;;;;5088828;28;19924;-64
2022/12/09 08:47:26;;;;;;;;;;;0.50;99.90;;;;;;5084643;28;19920;-63
2022/12/09 08:49:52;;;;;;;;;;;0.50;99.90;;;;;;5075623;28;20291;-63
2022/12/09 08:52:17;;;;;;;;;;;0.50;99.90;;;;;;5091895;28;19920;-63
2022/12/09 08:54:42;;;;;;;;;;;0.50;99.90;;;;;;5088048;28;19974;-64
2022/12/09 08:57:08;;;;;;;;;;;0.50;99.90;;;;;;5080075;28;19920;-63
2022/12/09 08:59:33;;;;;;;;;;;0.60;99.90;;;;;;5077800;28;19932;-63
2022/12/09 09:01:59;;;;;;;;;;;0.50;99.90;;;;;;5062848;28;20278;-63
2022/12/09 09:04:24;;;;;;;;;;;0.50;99.90;;;;;;5082347;28;19920;-64
2022/12/09 09:06:50;;;;;;;;;;;0.50;99.90;;;;;;5062488;28;19931;-64
2022/12/09 09:09:16;;;;;;;;;;;0.50;99.90;;;;;;5072044;28;20011;-64
2022/12/09 09:11:42;;;;;;;;;;;0.50;99.90;;;;;;5066285;28;19921;-64
2022/12/09 09:14:09;;;;;;;;;;;0.50;99.90;;;;;;5076732;28;19931;-64
2022/12/09 09:16:37;;;;;;;;;;;0.50;99.90;;;;;;5068220;28;20011;-64
2022/12/09 09:19:04;;;;;;;;;;;0.50;99.90;;;;;;5062082;28;19924;-64
2022/12/09 09:21:30;;;;;;;;;;;0.50;99.90;;;;;;5064259;28;19931;-63
2022/12/09 09:23:55;;;;;;;;;;;0.50;99.90;;;;;;5073411;28;20023;-64
2022/12/09 09:26:22;;;;;;;;;;;0.50;99.90;;;;;;5102844;28;19969;-63
2022/12/09 09:28:48;;;;;;;;;;;0.60;99.90;;;;;;5074494;28;20422;-63
2022/12/09 09:31:18;;;;;;;;;;;0.70;99.90;;;;;;5075366;28;20015;-64
2022/12/09 09:33:44;;;;;;;;;;;0.70;99.90;;;;;;5102517;28;19950;-64
2022/12/09 09:36:14;;;;;;;;;;;0.70;99.90;;;;;;5072150;28;20381;-64
2022/12/09 09:38:39;;;;;;;;;;;0.80;99.90;;;;;;5072771;28;19920;-64
2022/12/09 09:41:24;;;;;;;;;;;0.80;99.90;;;;;;5071846;28;19927;-64
2022/12/09 09:43:50;;;;;;;;;;;0.70;99.90;;;;;;5071605;28;20099;-64
2022/12/09 09:46:19;;;;;;;;;;;0.70;99.90;;;;;;5102933;28;19942;-64
2022/12/09 09:48:45;;;;;;;;;;;0.80;99.90;;;;;;5104000;28;19923;-64
2022/12/09 09:51:15;;;;;;;;;;;0.90;99.90;;;;;;5104746;28;19920;-63
2022/12/09 09:53:41;;;;;;;;;;;0.90;99.90;;;;;;5058791;28;20417;-64
2022/12/09 09:56:18;;;;;;;;;;;1.00;99.90;;;;;;5074224;28;19920;-64
2022/12/09 09:59:04;;;;;;;;;;;0.90;99.90;;;;;;5074422;28;20396;-65
2022/12/09 10:01:34;;;;;;;;;;;1.00;99.90;;;;;;5079797;28;20106;-64
2022/12/09 10:04:04;;;;;;;;;;;0.90;99.90;;;;;;5086319;28;19932;-64
2022/12/09 10:06:50;;;;;;;;;;;1.00;99.90;;;;;;5076565;28;19932;-64
2022/12/09 10:09:19;;;;;;;;;;;1.00;99.90;;;;;;5074655;28;20390;-64
2022/12/09 10:11:57;;;;;;;;;;;1.00;99.90;;;;;;5080926;28;19920;-64
2022/12/09 10:14:30;;;;;;;;;;;1.10;99.90;;;;;;5094420;28;20356;-64
2022/12/09 10:17:03;;;;;;;;;;;1.10;99.90;;;;;;5088503;28;19920;-64
2022/12/09 10:19:34;;;;;;;;;;;1.30;99.90;;;;;;5098169;28;19928;-64
2022/12/09 10:22:20;;;;;;;;;;;1.20;99.90;;;;;;5115935;27;19920;-64
2022/12/09 10:24:47;;;;;;;;;;;1.20;99.90;;;;;;5108452;27;19927;-64
2022/12/09 10:27:30;;;;;;;;;;;1.10;99.90;;;;;;5116528;27;19931;-64
2022/12/09 10:30:00;;;;;;;;;;;1.10;99.90;;;;;;5091099;28;20278;-64
2022/12/09 10:32:31;;;;;;;;;;;1.20;99.90;;;;;;5089653;28;19924;-64
2022/12/09 10:34:56;;;;;;;;;;;1.30;99.90;;;;;;5090813;28;19924;-64
2022/12/09 10:37:40;;;;;;;;;;;1.30;99.90;;;;;;5077613;28;19927;-64
2022/12/09 10:40:05;;;;;;;;;;;1.30;99.90;;;;;;5071978;28;20003;-63
2022/12/09 10:45:20;;;;;;;;;;;1.60;99.90;;;;;;5081342;28;19927;-64
2022/12/09 10:47:50;;;;;;;;;;;1.50;99.90;;;;;;5120360;27;19928;-63
2022/12/09 10:50:25;;;;;;;;;;;1.60;99.90;;;;;;5091448;28;19935;-63
2022/12/09 10:52:51;;;;;;;;;;;1.60;99.90;;;;;;5084945;28;20323;-63
2022/12/09 10:55:26;;;;;;;;;;;1.60;99.90;;;;;;5094295;28;19932;-63
2022/12/09 10:58:08;;;;;;;;;;;1.60;99.90;;;;;;5100893;28;19967;-63
2022/12/09 11:00:33;;;;;;;;;;;1.70;99.90;;;;;;5098435;28;19930;-64
2022/12/09 11:02:59;;;;;;;;;;;1.80;99.90;;;;;;5090432;28;19920;-64
2022/12/09 11:05:26;;;;;;;;;;;1.80;99.90;;;;;;5086301;28;20332;-64
2022/12/09 11:07:52;;;;;;;;;;;1.80;99.90;;;;;;5122625;27;19927;-64
2022/12/09 11:10:19;;;;;;;;;;;1.80;99.90;;;;;;5122195;27;19921;-64
2022/12/09 11:12:45;;;;;;;;;;;1.80;99.90;;;;;;5086782;28;20347;-64
2022/12/09 11:15:11;;;;;;;;;;;1.90;99.90;;;;;;5091539;28;19967;-63
2022/12/09 11:17:38;;;;;;;;;;;1.90;99.90;;;;;;5069601;28;19968;-64
2022/12/09 11:20:04;;;;;;;;;;;1.80;99.90;;;;;;5123322;27;19969;-64
2022/12/09 11:22:39;;;;;;;;;;;1.90;99.90;;;;;;5090202;28;19924;-64
2022/12/09 11:25:11;;;;;;;;;;;1.90;99.90;;;;;;5088708;28;19960;-64
2022/12/09 11:27:38;;;;;;;;;;;1.80;99.90;;;;;;5105920;27;19923;-64
2022/12/09 11:30:07;;;;;;;;;;;2.00;99.90;;;;;;5086457;28;19927;-64
2022/12/09 11:32:36;;;;;;;;;;;1.90;99.90;;;;;;5122683;27;20009;-64
2022/12/09 11:35:02;;;;;;;;;;;2.00;99.90;;;;;;5099591;28;19942;-64
2022/12/09 11:37:27;;;;;;;;;;;2.00;99.90;;;;;;5091834;28;19919;-64
2022/12/09 11:39:53;;;;;;;;;;;2.00;99.90;;;;;;5092572;27;19924;-64
2022/12/09 11:42:21;;;;;;;;;;;2.00;99.90;;;;;;5116298;27;20007;-64
2022/12/09 11:45:05;;;;;;;;;;;2.00;99.90;;;;;;5083677;28;20545;-64
2022/12/09 11:47:32;;;;;;;;;;;1.90;99.90;;;;;;5116510;27;19972;-64
2022/12/09 11:50:10;;;;;;;;;;;2.00;99.90;;;;;;5084092;28;19971;-63
2022/12/09 11:52:36;;;;;;;;;;;1.90;99.90;;;;;;5117357;27;20371;-64
2022/12/09 11:55:10;;;;;;;;;;;1.90;99.90;;;;;;5077302;28;19932;-64
2022/12/09 11:57:51;;;;;;;;;;;1.80;99.90;;;;;;5113022;27;19925;-63
2022/12/09 12:00:32;;;;;;;;;;;1.90;99.90;;;;;;5088638;28;19935;-63
2022/12/09 12:03:19;;;;;;;;;;;2.00;99.90;;;;;;5085761;28;19919;-64
2022/12/09 12:05:49;;;;;;;;;;;2.20;99.90;;;;;;5087356;28;20404;-63
2022/12/09 12:08:17;;;;;;;;;;;2.30;99.90;;;;;;5094879;27;19931;-63
2022/12/09 12:10:53;;;;;;;;;;;2.30;99.90;;;;;;5082741;28;19919;-63
2022/12/09 12:13:21;;;;;;;;;;;2.50;99.90;;;;;;5080264;28;20382;-64
2022/12/09 12:15:50;;;;;;;;;;;2.40;99.90;;;;;;5084356;28;20022;-64
2022/12/09 12:18:19;;;;;;;;;;;2.60;99.90;;;;;;5080035;28;19928;-63
2022/12/09 12:20:57;;;;;;;;;;;2.60;99.90;;;;;;5076966;28;19927;-64
2022/12/09 12:23:30;;;;;;;;;;;2.60;99.90;;;;;;5081063;28;19919;-64
2022/12/09 12:26:14;;;;;;;;;;;2.70;99.90;;;;;;5088728;28;20441;-63
2022/12/09 12:28:58;;;;;;;;;;;2.70;99.90;;;;;;5085052;28;20035;-64
2022/12/09 12:31:23;;;;;;;;;;;2.80;99.90;;;;;;5088642;28;19932;-64
2022/12/09 12:34:08;;;;;;;;;;;2.80;99.90;;;;;;5118765;27;19977;-63
2022/12/09 12:36:42;;;;;;;;;;;2.90;99.90;;;;;;5093581;28;19969;-63
2022/12/09 12:39:12;;;;;;;;;;;3.00;99.90;;;;;;5124141;27;20014;-64
2022/12/09 12:41:38;;;;;;;;;;;2.90;99.90;;;;;;5123901;27;19923;-64
2022/12/09 12:47:12;;;;;;;;;;;3.20;99.90;;;;;;5121651;27;19977;-64
2022/12/09 12:49:41;;;;;;;;;;;3.20;99.90;;;;;;5096900;28;19928;-63
2022/12/09 12:52:13;;;;;;;;;;;3.30;99.90;;;;;;5088970;28;19920;-63
2022/12/09 12:54:57;;;;;;;;;;;3.40;99.90;;;;;;5093393;28;20010;-64
2022/12/09 12:57:31;;;;;;;;;;;3.50;99.90;;;;;;5088911;28;20051;-64
2022/12/09 13:00:00;;;;;;;;;;;3.40;99.90;;;;;;5084578;28;20294;-63
2022/12/09 13:02:44;;;;;;;;;;;3.30;99.90;;;;;;5118610;27;19984;-64
2022/12/09 13:05:36;;;;;;;;;;;3.30;99.90;;;;;;5112953;27;20014;-63
2022/12/09 13:08:04;;;;;;;;;;;3.30;99.90;;;;;;5082734;28;19959;-64
2022/12/09 13:10:44;;;;;;;;;;;3.30;99.90;;;;;;5116455;27;19959;-64
2022/12/09 13:13:15;;;;;;;;;;;3.30;99.90;;;;;;5067845;28;19931;-63
2022/12/09 13:15:44;;;;;;;;;;;3.30;99.90;;;;;;5086124;28;19929;-64
2022/12/09 13:18:15;;;;;;;;;;;3.40;99.90;;;;;;5080731;28;20030;-63
2022/12/09 13:20:51;;;;;;;;;;;3.40;99.90;;;;;;5092625;28;19920;-64
2022/12/09 13:23:17;;;;;;;;;;;3.40;99.90;;;;;;5079424;28;19969;-64
2022/12/09 13:25:51;;;;;;;;;;;3.40;99.90;;;;;;5092183;28;19928;-64
2022/12/09 13:28:32;;;;;;;;;;;3.40;99.90;;;;;;5090600;28;19951;-64
2022/12/09 13:30:59;;;;;;;;;;;3.40;99.90;;;;;;5091132;28;20364;-63
2022/12/09 13:33:28;;;;;;;;;;;3.40;99.90;;;;;;5084728;28;20085;-63
2022/12/09 13:36:11;;;;;;;;;;;3.30;99.90;;;;;;5096031;28;20165;-64
2022/12/09 13:38:41;;;;;;;;;;;3.30;99.90;;;;;;5079775;28;19985;-64
2022/12/09 13:41:25;;;;;;;;;;;3.30;99.90;;;;;;5129687;27;19924;-63
2022/12/09 13:44:10;;;;;;;;;;;3.30;99.90;;;;;;5081022;28;19927;-64
2022/12/09 13:46:35;;;;;;;;;;;3.30;99.90;;;;;;5087294;28;20293;-64
2022/12/09 13:49:08;;;;;;;;;;;3.20;99.90;;;;;;5082684;28;19929;-64
2022/12/09 13:52:00;;;;;;;;;;;3.20;99.90;;;;;;5091205;28;20354;-64
2022/12/09 13:54:27;;;;;;;;;;;3.20;99.90;;;;;;5087974;28;19923;-64
2022/12/09 13:57:11;;;;;;;;;;;3.10;99.90;;;;;;5089460;28;20024;-64
2022/12/09 13:59:46;;;;;;;;;;;3.10;99.90;;;;;;5088182;28;19920;-64
2022/12/09 14:02:24;;;;;;;;;;;3.00;99.90;;;;;;5106497;28;19931;-64
2022/12/09 14:04:54;;;;;;;;;;;3.00;99.90;;;;;;5099377;27;20305;-64
2022/12/09 14:07:43;;;;;;;;;;;3.00;99.90;;;;;;5106934;28;19931;-64
2022/12/09 14:10:27;;;;;;;;;;;3.00;99.90;;;;;;5087099;27;19973;-64
2022/12/09 14:12:56;;;;;;;;;;;2.90;99.90;;;;;;5071233;28;20330;-64
2022/12/09 14:15:24;;;;;;;;;;;3.00;99.90;;;;;;5075060;28;19967;-64
2022/12/09 14:17:50;;;;;;;;;;;2.90;99.90;;;;;;5105341;27;20007;-64
2022/12/09 14:20:19;;;;;;;;;;;2.90;99.90;;;;;;5102458;28;20071;-64
2022/12/09 14:23:02;;;;;;;;;;;2.90;99.90;;;;;;5072100;28;19932;-64
2022/12/09 14:25:32;;;;;;;;;;;3.00;99.90;;;;;;5091479;28;19920;-64
2022/12/09 14:28:14;;;;;;;;;;;2.90;99.90;;;;;;5055250;28;20018;-65
2022/12/09 14:30:53;;;;;;;;;;;2.80;99.90;;;;;;5068731;28;19974;-64
2022/12/09 14:33:21;;;;;;;;;;;2.80;99.90;;;;;;5061768;28;19935;-64
2022/12/09 14:35:52;;;;;;;;;;;2.80;99.90;;;;;;5070480;28;20449;-64
2022/12/09 14:38:24;;;;;;;;;;;2.80;99.90;;;;;;5073000;28;20342;-64
2022/12/09 14:41:08;;;;;;;;;;;2.80;99.90;;;;;;5107941;28;20019;-64
2022/12/09 14:43:41;;;;;;;;;;;2.70;99.90;;;;;;5065280;28;19970;-64